createdAt,value
2018-02-22T00:00:24.297Z,62.71
2018-02-22T00:01:31.119Z,62.72
2018-02-22T00:02:38.188Z,62.70
2018-02-22T00:03:44.910Z,62.72
2018-02-22T00:04:51.684Z,62.78
2018-02-22T00:05:58.634Z,62.84
2018-02-22T00:07:05.370Z,62.84
2018-02-22T00:08:12.116Z,62.86
2018-02-22T00:09:18.835Z,62.84
2018-02-22T00:10:25.624Z,62.86
2018-02-22T00:11:32.458Z,62.88
2018-02-22T00:12:39.193Z,62.88
2018-02-22T00:13:45.927Z,62.83
2018-02-22T00:14:52.666Z,62.89
2018-02-22T00:15:59.415Z,62.88
2018-02-22T00:17:06.227Z,62.90
2018-02-22T00:18:12.964Z,62.90
2018-02-22T00:19:19.727Z,62.87
2018-02-22T00:20:26.481Z,62.85
2018-02-22T00:21:33.232Z,62.88
2018-02-22T00:22:40.011Z,62.86
2018-02-22T00:23:46.759Z,62.91
2018-02-22T00:24:53.504Z,62.88
2018-02-22T00:26:00.211Z,62.85
2018-02-22T00:27:06.999Z,62.86
2018-02-22T00:28:13.791Z,62.85
2018-02-22T00:29:20.520Z,62.85
2018-02-22T00:30:27.260Z,62.89
2018-02-22T00:31:34.022Z,62.87
2018-02-22T00:32:40.788Z,62.92
2018-02-22T00:33:47.586Z,62.92
2018-02-22T00:34:54.322Z,62.92
2018-02-22T00:36:01.146Z,62.90
2018-02-22T00:37:08.025Z,62.92
2018-02-22T00:38:14.750Z,62.96
2018-02-22T00:39:21.485Z,62.92
2018-02-22T00:40:28.228Z,62.93
2018-02-22T00:41:34.960Z,62.92
2018-02-22T00:42:41.679Z,62.97
2018-02-22T00:43:48.474Z,62.96
2018-02-22T00:44:55.186Z,62.96
2018-02-22T00:46:01.904Z,62.94
2018-02-22T00:47:08.668Z,62.96
2018-02-22T00:48:15.398Z,62.94
2018-02-22T00:49:22.227Z,62.95
2018-02-22T00:50:28.925Z,62.96
2018-02-22T00:51:35.723Z,62.95
2018-02-22T00:52:42.451Z,62.97
2018-02-22T00:53:49.138Z,62.98
2018-02-22T00:54:56.010Z,62.98
2018-02-22T00:56:02.696Z,62.96
2018-02-22T00:57:09.532Z,62.99
2018-02-22T00:58:16.276Z,63.03
2018-02-22T00:59:23.274Z,63.00
2018-02-22T01:00:29.979Z,63.04
2018-02-22T01:01:36.820Z,63.04
2018-02-22T01:02:43.685Z,63.01
2018-02-22T01:03:50.374Z,63.03
2018-02-22T01:04:57.106Z,63.01
2018-02-22T01:06:03.791Z,63.02
2018-02-22T01:07:10.520Z,63.02
2018-02-22T01:08:17.236Z,63.04
2018-02-22T01:09:23.991Z,63.04
2018-02-22T01:10:30.676Z,63.06
2018-02-22T01:11:37.383Z,63.03
2018-02-22T01:12:44.090Z,63.02
2018-02-22T01:13:50.808Z,63.05
2018-02-22T01:14:57.568Z,63.06
2018-02-22T01:16:04.339Z,63.08
2018-02-22T01:17:11.077Z,63.07
2018-02-22T01:18:17.783Z,63.07
2018-02-22T01:19:24.464Z,63.07
2018-02-22T01:20:31.203Z,63.05
2018-02-22T01:21:37.919Z,63.08
2018-02-22T01:22:44.630Z,63.07
2018-02-22T01:23:51.427Z,63.07
2018-02-22T01:24:58.147Z,63.10
2018-02-22T01:26:04.890Z,63.12
2018-02-22T01:27:11.621Z,63.09
2018-02-22T01:28:18.309Z,63.10
2018-02-22T01:29:24.977Z,63.08
2018-02-22T01:30:31.667Z,63.09
2018-02-22T01:31:38.480Z,63.11
2018-02-22T01:32:45.172Z,63.10
2018-02-22T01:33:52.099Z,63.09
2018-02-22T01:34:58.925Z,63.06
2018-02-22T01:36:05.623Z,63.08
2018-02-22T01:37:12.608Z,63.11
2018-02-22T01:38:19.397Z,63.14
2018-02-22T01:39:26.087Z,63.14
2018-02-22T01:40:32.770Z,63.15
2018-02-22T01:41:39.492Z,63.16
2018-02-22T01:42:46.199Z,63.20
2018-02-22T01:43:52.991Z,63.21
2018-02-22T01:44:59.681Z,63.21
2018-02-22T01:46:06.371Z,63.24
2018-02-22T01:47:13.213Z,63.26
2018-02-22T01:48:19.992Z,63.27
2018-02-22T01:49:26.764Z,63.27
2018-02-22T01:50:33.656Z,63.33
2018-02-22T01:51:40.400Z,63.34
2018-02-22T01:52:47.148Z,63.31
2018-02-22T01:53:53.903Z,63.32
2018-02-22T01:55:00.831Z,63.36
2018-02-22T01:56:07.507Z,63.37
2018-02-22T01:57:14.252Z,63.36
2018-02-22T01:58:20.941Z,63.35
2018-02-22T01:59:27.647Z,63.39
2018-02-22T02:00:34.343Z,63.38
2018-02-22T02:01:41.044Z,63.39
2018-02-22T02:02:47.874Z,63.36
2018-02-22T02:03:54.571Z,63.33
2018-02-22T02:05:01.279Z,63.37
2018-02-22T02:06:07.979Z,63.38
2018-02-22T02:07:14.718Z,63.42
2018-02-22T02:08:21.405Z,63.47
2018-02-22T02:09:28.115Z,63.47
2018-02-22T02:10:34.876Z,63.42
2018-02-22T02:11:41.680Z,63.41
2018-02-22T02:12:48.384Z,63.44
2018-02-22T02:13:55.106Z,63.43
2018-02-22T02:15:01.844Z,63.43
2018-02-22T02:16:08.680Z,63.49
2018-02-22T02:17:15.476Z,63.47
2018-02-22T02:18:22.159Z,63.46
2018-02-22T02:19:28.867Z,63.48
2018-02-22T02:20:35.575Z,63.52
2018-02-22T02:21:42.299Z,63.54
2018-02-22T02:22:49.008Z,63.53
2018-02-22T02:23:55.724Z,63.53
2018-02-22T02:25:02.411Z,63.57
2018-02-22T02:26:09.244Z,63.56
2018-02-22T02:27:15.939Z,63.59
2018-02-22T02:28:22.915Z,63.59
2018-02-22T02:29:29.712Z,63.65
2018-02-22T02:30:36.399Z,63.63
2018-02-22T02:31:43.102Z,63.63
2018-02-22T02:32:49.811Z,63.64
2018-02-22T02:33:56.619Z,63.67
2018-02-22T02:35:03.325Z,63.67
2018-02-22T02:36:10.148Z,63.67
2018-02-22T02:37:16.891Z,63.68
2018-02-22T02:38:23.608Z,63.73
2018-02-22T02:39:30.351Z,63.70
2018-02-22T02:40:37.057Z,63.77
2018-02-22T02:41:43.967Z,63.75
2018-02-22T02:42:50.657Z,63.76
2018-02-22T02:43:57.369Z,63.75
2018-02-22T02:45:04.067Z,63.77
2018-02-22T02:46:10.779Z,63.78
2018-02-22T02:47:17.513Z,63.75
2018-02-22T02:48:24.245Z,63.75
2018-02-22T02:49:30.986Z,63.77
2018-02-22T02:50:37.682Z,63.79
2018-02-22T02:51:44.408Z,63.78
2018-02-22T02:52:51.147Z,63.75
2018-02-22T02:53:57.883Z,63.77
2018-02-22T02:55:04.713Z,63.77
2018-02-22T02:56:11.406Z,63.79
2018-02-22T02:57:18.260Z,63.81
2018-02-22T02:58:25.055Z,63.79
2018-02-22T02:59:31.787Z,63.81
2018-02-22T03:00:38.472Z,63.83
2018-02-22T03:01:45.191Z,63.81
2018-02-22T03:02:51.906Z,63.82
2018-02-22T03:03:58.624Z,63.83
2018-02-22T03:05:05.341Z,63.88
2018-02-22T03:06:12.137Z,63.85
2018-02-22T03:07:18.870Z,63.84
2018-02-22T03:08:25.547Z,63.86
2018-02-22T03:09:32.422Z,63.86
2018-02-22T03:10:39.215Z,63.85
2018-02-22T03:11:45.944Z,63.91
2018-02-22T03:12:52.675Z,63.88
2018-02-22T03:13:59.376Z,63.87
2018-02-22T03:15:06.098Z,63.92
2018-02-22T03:16:12.809Z,63.96
2018-02-22T03:17:19.588Z,63.93
2018-02-22T03:18:26.274Z,63.92
2018-02-22T03:19:33.017Z,63.91
2018-02-22T03:20:39.723Z,63.88
2018-02-22T03:21:46.475Z,63.94
2018-02-22T03:22:53.280Z,63.90
2018-02-22T03:23:59.992Z,63.96
2018-02-22T03:25:06.717Z,63.94
2018-02-22T03:26:13.467Z,63.93
2018-02-22T03:27:20.184Z,64.00
2018-02-22T03:28:27.023Z,63.97
2018-02-22T03:29:33.748Z,63.93
2018-02-22T03:30:40.460Z,63.93
2018-02-22T03:31:47.163Z,63.96
2018-02-22T03:32:53.891Z,63.95
2018-02-22T03:34:00.590Z,63.97
2018-02-22T03:35:07.288Z,64.00
2018-02-22T03:36:13.960Z,63.99
2018-02-22T03:37:20.664Z,64.00
2018-02-22T03:38:27.532Z,64.02
2018-02-22T03:39:34.253Z,64.02
2018-02-22T03:40:41.020Z,64.03
2018-02-22T03:41:47.714Z,64.04
2018-02-22T03:42:54.427Z,64.08
2018-02-22T03:44:01.259Z,64.09
2018-02-22T03:45:07.957Z,64.08
2018-02-22T03:46:14.671Z,64.11
2018-02-22T03:47:21.392Z,64.10
2018-02-22T03:48:28.067Z,64.08
2018-02-22T03:49:34.801Z,64.07
2018-02-22T03:50:41.468Z,64.10
2018-02-22T03:51:48.173Z,64.09
2018-02-22T03:52:54.922Z,64.13
2018-02-22T03:54:01.653Z,64.11
2018-02-22T03:55:08.327Z,64.13
2018-02-22T03:56:15.004Z,64.12
2018-02-22T03:57:21.737Z,64.12
2018-02-22T03:58:28.434Z,64.14
2018-02-22T03:59:35.161Z,64.14
2018-02-22T04:00:41.856Z,64.19
2018-02-22T04:01:48.585Z,64.19
2018-02-22T04:02:55.768Z,64.21
2018-02-22T04:04:02.555Z,64.25
2018-02-22T04:05:09.357Z,64.22
2018-02-22T04:06:16.095Z,64.24
2018-02-22T04:07:22.818Z,64.27
2018-02-22T04:08:29.622Z,64.26
2018-02-22T04:09:36.345Z,64.27
2018-02-22T04:10:43.044Z,64.25
2018-02-22T04:11:50.215Z,64.29
2018-02-22T04:12:56.915Z,64.30
2018-02-22T04:14:03.620Z,64.33
2018-02-22T04:15:10.381Z,64.32
2018-02-22T04:16:17.081Z,64.32
2018-02-22T04:17:23.929Z,64.34
2018-02-22T04:18:30.672Z,64.35
2018-02-22T04:19:37.360Z,64.38
2018-02-22T04:20:44.124Z,64.38
2018-02-22T04:21:50.871Z,64.40
2018-02-22T04:22:57.729Z,64.41
2018-02-22T04:24:04.459Z,64.39
2018-02-22T04:25:11.147Z,64.41
2018-02-22T04:26:17.897Z,64.40
2018-02-22T04:27:24.619Z,64.42
2018-02-22T04:28:31.305Z,64.43
2018-02-22T04:29:37.981Z,64.47
2018-02-22T04:30:44.805Z,64.48
2018-02-22T04:31:51.508Z,64.48
2018-02-22T04:32:58.256Z,64.50
2018-02-22T04:34:04.991Z,64.54
2018-02-22T04:35:11.700Z,64.54
2018-02-22T04:36:18.423Z,64.55
2018-02-22T04:37:25.251Z,64.60
2018-02-22T04:38:32.049Z,64.61
2018-02-22T04:39:38.765Z,64.61
2018-02-22T04:40:45.558Z,64.64
2018-02-22T04:41:52.391Z,64.68
2018-02-22T04:42:59.109Z,64.64
2018-02-22T04:44:05.816Z,64.68
2018-02-22T04:45:12.542Z,64.70
2018-02-22T04:46:19.237Z,64.73
2018-02-22T04:47:25.987Z,64.71
2018-02-22T04:48:32.849Z,64.73
2018-02-22T04:49:39.551Z,64.74
2018-02-22T04:50:46.244Z,64.77
2018-02-22T04:51:52.936Z,64.79
2018-02-22T04:52:59.672Z,64.78
2018-02-22T04:54:06.373Z,64.77
2018-02-22T04:55:13.131Z,64.79
2018-02-22T04:56:19.949Z,64.82
2018-02-22T04:57:26.697Z,64.82
2018-02-22T04:58:33.448Z,64.82
2018-02-22T04:59:40.149Z,64.85
2018-02-22T05:00:46.869Z,64.85
2018-02-22T05:01:53.673Z,64.87
2018-02-22T05:03:00.396Z,64.89
2018-02-22T05:04:07.116Z,64.92
2018-02-22T05:05:13.812Z,64.92
2018-02-22T05:06:20.515Z,64.95
2018-02-22T05:07:27.576Z,64.94
2018-02-22T05:08:34.270Z,64.94
2018-02-22T05:09:40.991Z,64.90
2018-02-22T05:10:47.697Z,64.95
2018-02-22T05:11:54.388Z,64.96
2018-02-22T05:13:01.385Z,64.98
2018-02-22T05:14:08.149Z,65.02
2018-02-22T05:15:14.873Z,65.06
2018-02-22T05:16:21.568Z,65.08
2018-02-22T05:17:28.375Z,65.07
2018-02-22T05:18:35.304Z,65.10
2018-02-22T05:19:41.992Z,65.18
2018-02-22T05:20:48.820Z,65.17
2018-02-22T05:21:55.719Z,65.22
2018-02-22T05:23:02.423Z,65.24
2018-02-22T05:24:09.139Z,65.26
2018-02-22T05:25:15.915Z,65.26
2018-02-22T05:26:22.611Z,65.29
2018-02-22T05:27:29.355Z,65.28
2018-02-22T05:28:36.065Z,65.32
2018-02-22T05:29:43.053Z,65.33
2018-02-22T05:30:49.761Z,65.34
2018-02-22T05:31:56.455Z,65.30
2018-02-22T05:33:03.224Z,65.32
2018-02-22T05:34:09.918Z,65.35
2018-02-22T05:35:16.730Z,65.38
2018-02-22T05:36:23.440Z,65.37
2018-02-22T05:37:30.180Z,65.42
2018-02-22T05:38:36.948Z,65.46
2018-02-22T05:39:43.730Z,65.44
2018-02-22T05:40:50.544Z,65.45
2018-02-22T05:41:57.235Z,65.47
2018-02-22T05:43:03.967Z,65.44
2018-02-22T05:44:10.705Z,65.47
2018-02-22T05:45:17.410Z,65.49
2018-02-22T05:46:24.116Z,65.54
2018-02-22T05:47:30.835Z,65.52
2018-02-22T05:48:37.665Z,65.52
2018-02-22T05:49:44.436Z,65.57
2018-02-22T05:50:51.135Z,65.57
2018-02-22T05:51:57.854Z,65.62
2018-02-22T05:53:04.579Z,65.62
2018-02-22T05:54:11.414Z,65.64
2018-02-22T05:55:18.155Z,65.65
2018-02-22T05:56:24.868Z,65.65
2018-02-22T05:57:31.566Z,65.66
2018-02-22T05:58:38.287Z,65.68
2018-02-22T05:59:45.108Z,65.69
2018-02-22T06:00:51.841Z,65.71
2018-02-22T06:01:58.549Z,65.71
2018-02-22T06:03:05.388Z,65.75
2018-02-22T06:04:12.107Z,65.75
2018-02-22T06:05:18.816Z,65.79
2018-02-22T06:06:25.620Z,65.81
2018-02-22T06:07:32.319Z,65.80
2018-02-22T06:08:39.035Z,65.83
2018-02-22T06:09:45.764Z,65.86
2018-02-22T06:10:52.472Z,65.87
2018-02-22T06:11:59.167Z,65.88
2018-02-22T06:13:05.860Z,65.86
2018-02-22T06:14:12.952Z,65.88
2018-02-22T06:15:19.707Z,65.93
2018-02-22T06:16:26.493Z,65.92
2018-02-22T06:17:33.195Z,65.94
2018-02-22T06:18:39.903Z,65.97
2018-02-22T06:19:46.697Z,65.99
2018-02-22T06:20:53.460Z,66.01
2018-02-22T06:22:00.241Z,66.02
2018-02-22T06:23:07.016Z,66.02
2018-02-22T06:24:13.732Z,66.03
2018-02-22T06:25:20.466Z,66.12
2018-02-22T06:26:27.167Z,66.13
2018-02-22T06:27:33.977Z,66.17
2018-02-22T06:28:40.704Z,66.18
2018-02-22T06:29:47.432Z,66.20
2018-02-22T06:30:54.155Z,66.21
2018-02-22T06:32:00.976Z,66.22
2018-02-22T06:33:07.699Z,66.21
2018-02-22T06:34:14.520Z,66.19
2018-02-22T06:35:21.311Z,66.21
2018-02-22T06:36:28.088Z,66.25
2018-02-22T06:37:34.802Z,66.22
2018-02-22T06:38:41.488Z,66.25
2018-02-22T06:39:48.196Z,66.26
2018-02-22T06:40:55.033Z,66.24
2018-02-22T06:42:01.843Z,66.25
2018-02-22T06:43:08.577Z,66.27
2018-02-22T06:44:15.727Z,66.29
2018-02-22T06:45:22.448Z,66.33
2018-02-22T06:46:29.143Z,66.33
2018-02-22T06:47:35.971Z,66.28
2018-02-22T06:48:42.694Z,66.35
2018-02-22T06:49:49.387Z,66.27
2018-02-22T06:50:56.132Z,66.30
2018-02-22T06:52:02.858Z,66.33
2018-02-22T06:53:09.605Z,66.34
2018-02-22T06:54:16.404Z,66.34
2018-02-22T06:55:23.104Z,66.34
2018-02-22T06:56:29.809Z,66.30
2018-02-22T06:57:36.528Z,66.31
2018-02-22T06:58:43.359Z,66.31
2018-02-22T06:59:50.035Z,66.32
2018-02-22T07:00:56.868Z,66.35
2018-02-22T07:02:03.560Z,66.32
2018-02-22T07:03:10.280Z,66.30
2018-02-22T07:04:17.039Z,66.28
2018-02-22T07:05:23.735Z,66.30
2018-02-22T07:06:30.468Z,66.33
2018-02-22T07:07:37.301Z,66.34
2018-02-22T07:08:44.092Z,66.34
2018-02-22T07:09:50.861Z,66.37
2018-02-22T07:10:57.852Z,66.35
2018-02-22T07:12:04.576Z,66.36
2018-02-22T07:13:11.301Z,66.32
2018-02-22T07:14:18.134Z,66.34
2018-02-22T07:15:24.911Z,66.33
2018-02-22T07:16:31.600Z,66.34
2018-02-22T07:17:38.302Z,66.37
2018-02-22T07:18:45.035Z,66.38
2018-02-22T07:19:51.776Z,66.34
2018-02-22T07:20:58.483Z,66.37
2018-02-22T07:22:05.329Z,66.37
2018-02-22T07:23:16.789Z,66.36
2018-02-22T07:24:18.844Z,66.35
2018-02-22T07:25:25.608Z,66.36
2018-02-22T07:26:32.324Z,66.35
2018-02-22T07:27:39.132Z,66.36
2018-02-22T07:28:45.856Z,66.35
2018-02-22T07:29:52.587Z,66.33
2018-02-22T07:30:59.315Z,66.36
2018-02-22T07:32:06.236Z,66.32
2018-02-22T07:33:12.922Z,66.33
2018-02-22T07:34:19.645Z,66.34
2018-02-22T07:35:26.409Z,66.32
2018-02-22T07:36:33.181Z,66.30
2018-02-22T07:37:39.872Z,66.29
2018-02-22T07:38:46.676Z,66.24
2018-02-22T07:39:53.675Z,66.28
2018-02-22T07:41:00.612Z,66.33
2018-02-22T07:42:07.355Z,66.26
2018-02-22T07:43:14.081Z,66.27
2018-02-22T07:44:20.831Z,66.27
2018-02-22T07:45:27.625Z,66.26
2018-02-22T07:46:34.353Z,66.25
2018-02-22T07:47:41.197Z,66.27
2018-02-22T07:48:47.988Z,66.30
2018-02-22T07:49:54.761Z,66.39
2018-02-22T07:51:01.456Z,66.34
2018-02-22T07:52:08.188Z,66.37
2018-02-22T07:53:14.940Z,66.37
2018-02-22T07:54:21.636Z,66.41
2018-02-22T07:55:28.326Z,66.43
2018-02-22T07:56:35.160Z,66.50
2018-02-22T07:57:41.899Z,66.48
2018-02-22T07:58:48.600Z,66.47
2018-02-22T07:59:55.284Z,66.46
2018-02-22T08:01:02.001Z,66.45
2018-02-22T08:02:08.732Z,66.53
2018-02-22T08:03:15.565Z,66.51
2018-02-22T08:04:22.392Z,66.53
2018-02-22T08:05:29.164Z,66.56
2018-02-22T08:06:35.865Z,66.59
2018-02-22T08:07:42.647Z,66.60
2018-02-22T08:08:49.344Z,66.62
2018-02-22T08:09:56.048Z,66.64
2018-02-22T08:11:02.744Z,66.58
2018-02-22T08:12:09.568Z,66.63
2018-02-22T08:13:16.379Z,66.64
2018-02-22T08:14:23.168Z,66.64
2018-02-22T08:15:29.887Z,66.61
2018-02-22T08:16:36.597Z,66.66
2018-02-22T08:17:43.350Z,66.66
2018-02-22T08:18:50.127Z,66.66
2018-02-22T08:19:56.816Z,66.60
2018-02-22T08:21:03.536Z,66.60
2018-02-22T08:22:10.225Z,66.60
2018-02-22T08:23:16.992Z,66.62
2018-02-22T08:24:23.696Z,66.67
2018-02-22T08:25:30.384Z,66.51
2018-02-22T08:26:37.171Z,66.56
2018-02-22T08:27:43.865Z,66.60
2018-02-22T08:28:50.553Z,66.58
2018-02-22T08:29:57.260Z,66.55
2018-02-22T08:31:03.990Z,66.61
2018-02-22T08:32:10.698Z,66.56
2018-02-22T08:33:17.389Z,66.57
2018-02-22T08:34:24.248Z,66.55
2018-02-22T08:35:30.935Z,66.57
2018-02-22T08:36:37.657Z,66.63
2018-02-22T08:37:44.578Z,66.66
2018-02-22T08:38:51.321Z,66.66
2018-02-22T08:39:58.057Z,66.70
2018-02-22T08:41:04.769Z,66.66
2018-02-22T08:42:11.568Z,66.63
2018-02-22T08:43:18.407Z,66.62
2018-02-22T08:44:25.173Z,66.63
2018-02-22T08:45:31.912Z,66.60
2018-02-22T08:46:38.600Z,66.52
2018-02-22T08:47:45.454Z,66.50
2018-02-22T08:48:52.172Z,66.46
2018-02-22T08:49:58.986Z,66.48
2018-02-22T08:51:05.748Z,66.42
2018-02-22T08:52:12.514Z,66.51
2018-02-22T08:53:19.236Z,66.49
2018-02-22T08:54:26.020Z,66.43
2018-02-22T08:55:32.854Z,66.51
2018-02-22T08:56:39.611Z,66.52
2018-02-22T08:57:46.331Z,66.47
2018-02-22T08:58:53.082Z,66.59
2018-02-22T08:59:59.851Z,66.50
2018-02-22T09:01:06.701Z,66.47
2018-02-22T09:02:13.431Z,66.44
2018-02-22T09:03:20.209Z,66.40
2018-02-22T09:04:26.931Z,66.25
2018-02-22T09:05:34.015Z,66.36
2018-02-22T09:06:40.743Z,66.41
2018-02-22T09:07:47.882Z,66.35
2018-02-22T09:08:54.747Z,66.47
2018-02-22T09:10:01.543Z,66.43
2018-02-22T09:11:08.379Z,66.39
2018-02-22T09:12:15.209Z,66.48
2018-02-22T09:13:22.040Z,66.35
2018-02-22T09:14:28.780Z,66.33
2018-02-22T09:15:35.467Z,66.37
2018-02-22T09:16:42.203Z,66.29
2018-02-22T09:17:48.945Z,66.17
2018-02-22T09:18:55.644Z,66.11
2018-02-22T09:20:02.361Z,66.05
2018-02-22T09:21:09.092Z,65.95
2018-02-22T09:22:15.836Z,65.83
2018-02-22T09:23:22.601Z,65.87
2018-02-22T09:24:29.378Z,65.85
2018-02-22T09:25:36.098Z,66.00
2018-02-22T09:26:42.859Z,66.04
2018-02-22T09:27:49.558Z,66.30
2018-02-22T09:28:56.260Z,66.28
2018-02-22T09:30:03.044Z,66.03
2018-02-22T09:31:09.855Z,66.00
2018-02-22T09:32:16.576Z,65.90
2018-02-22T09:33:23.279Z,65.79
2018-02-22T09:34:30.013Z,65.69
2018-02-22T09:35:36.771Z,65.77
2018-02-22T09:36:43.495Z,65.77
2018-02-22T09:37:50.236Z,65.63
2018-02-22T09:38:56.976Z,65.60
2018-02-22T09:40:03.771Z,65.51
2018-02-22T09:41:10.489Z,65.49
2018-02-22T09:42:17.276Z,65.58
2018-02-22T09:43:24.049Z,65.41
2018-02-22T09:44:30.756Z,65.41
2018-02-22T09:45:37.962Z,65.30
2018-02-22T09:46:44.297Z,65.52
2018-02-22T09:47:51.224Z,65.34
2018-02-22T09:48:58.168Z,65.31
2018-02-22T09:50:04.928Z,65.37
2018-02-22T09:51:11.722Z,65.17
2018-02-22T09:52:18.531Z,64.97
2018-02-22T09:53:25.308Z,65.04
2018-02-22T09:54:32.146Z,65.02
2018-02-22T09:55:38.858Z,64.93
2018-02-22T09:56:45.539Z,64.92
2018-02-22T09:57:52.272Z,64.81
2018-02-22T09:58:59.014Z,64.64
2018-02-22T10:00:05.740Z,64.56
2018-02-22T10:01:12.563Z,64.56
2018-02-22T10:02:19.578Z,64.47
2018-02-22T10:03:26.329Z,64.35
2018-02-22T10:04:33.081Z,64.29
2018-02-22T10:05:40.180Z,64.18
2018-02-22T10:06:46.967Z,64.07
2018-02-22T10:07:53.719Z,63.97
2018-02-22T10:09:00.435Z,63.92
2018-02-22T10:10:07.371Z,63.86
2018-02-22T10:11:14.091Z,63.72
2018-02-22T10:12:20.795Z,63.61
2018-02-22T10:13:27.607Z,63.44
2018-02-22T10:14:34.474Z,63.43
2018-02-22T10:15:41.201Z,63.49
2018-02-22T10:16:47.937Z,63.37
2018-02-22T10:17:54.724Z,63.23
2018-02-22T10:19:01.416Z,63.03
2018-02-22T10:20:08.284Z,63.00
2018-02-22T10:21:15.010Z,62.90
2018-02-22T10:22:21.789Z,62.57
2018-02-22T10:23:28.490Z,62.53
2018-02-22T10:24:36.155Z,62.48
2018-02-22T10:25:41.936Z,62.33
2018-02-22T10:26:48.628Z,62.17
2018-02-22T10:27:55.351Z,62.13
2018-02-22T10:29:02.119Z,62.06
2018-02-22T10:30:08.868Z,61.73
2018-02-22T10:31:15.655Z,61.72
2018-02-22T10:32:22.351Z,61.52
2018-02-22T10:33:29.187Z,61.37
2018-02-22T10:34:35.934Z,61.39
2018-02-22T10:35:42.692Z,61.13
2018-02-22T10:36:49.442Z,61.10
2018-02-22T10:37:56.216Z,60.97
2018-02-22T10:39:02.989Z,60.77
2018-02-22T10:40:09.733Z,60.78
2018-02-22T10:41:16.455Z,60.51
2018-02-22T10:42:23.292Z,60.33
2018-02-22T10:43:30.039Z,60.17
2018-02-22T10:44:36.796Z,60.17
2018-02-22T10:45:44.227Z,59.98
2018-02-22T10:46:51.242Z,59.90
2018-02-22T10:47:58.311Z,59.78
2018-02-22T10:49:04.919Z,59.60
2018-02-22T10:50:11.437Z,59.69
2018-02-22T10:51:18.562Z,59.53
2018-02-22T10:52:25.420Z,59.37
2018-02-22T10:53:32.196Z,59.41
2018-02-22T10:54:39.888Z,59.44
2018-02-22T10:55:45.657Z,59.20
2018-02-22T10:56:52.388Z,59.15
2018-02-22T10:57:59.099Z,58.96
2018-02-22T10:59:05.881Z,58.85
2018-02-22T11:00:12.578Z,58.87
2018-02-22T11:01:19.378Z,58.67
2018-02-22T11:02:26.160Z,58.47
2018-02-22T11:03:33.000Z,58.24
2018-02-22T11:04:39.805Z,58.08
2018-02-22T11:05:46.541Z,58.03
2018-02-22T11:06:53.339Z,57.88
2018-02-22T11:08:00.096Z,57.70
2018-02-22T11:09:06.829Z,57.58
2018-02-22T11:10:13.864Z,57.36
2018-02-22T11:11:20.600Z,57.26
2018-02-22T11:12:27.337Z,56.96
2018-02-22T11:13:34.143Z,56.69
2018-02-22T11:14:40.920Z,56.76
2018-02-22T11:15:47.612Z,56.64
2018-02-22T11:16:54.360Z,56.41
2018-02-22T11:18:01.240Z,56.43
2018-02-22T11:19:08.107Z,56.37
2018-02-22T11:20:14.958Z,56.27
2018-02-22T11:21:21.672Z,55.99
2018-02-22T11:22:28.448Z,55.89
2018-02-22T11:23:35.193Z,55.91
2018-02-22T11:24:41.936Z,55.74
2018-02-22T11:25:48.688Z,55.55
2018-02-22T11:26:55.415Z,55.53
2018-02-22T11:28:02.230Z,55.17
2018-02-22T11:29:08.956Z,55.05
2018-02-22T11:30:15.744Z,54.78
2018-02-22T11:31:22.480Z,54.61
2018-02-22T11:32:29.195Z,54.48
2018-02-22T11:33:35.904Z,54.30
2018-02-22T11:34:42.662Z,54.24
2018-02-22T11:35:49.464Z,54.12
2018-02-22T11:36:56.179Z,53.87
2018-02-22T11:38:02.914Z,53.84
2018-02-22T11:39:09.632Z,53.65
2018-02-22T11:40:16.375Z,53.53
2018-02-22T11:41:23.327Z,53.28
2018-02-22T11:42:30.035Z,53.33
2018-02-22T11:43:36.786Z,53.11
2018-02-22T11:44:43.529Z,52.91
2018-02-22T11:45:50.273Z,52.83
2018-02-22T11:46:57.114Z,52.79
2018-02-22T11:48:03.841Z,52.81
2018-02-22T11:49:10.571Z,52.65
2018-02-22T11:50:17.397Z,52.46
2018-02-22T11:51:24.119Z,52.29
2018-02-22T11:52:30.859Z,52.18
2018-02-22T11:53:37.569Z,51.98
2018-02-22T11:54:44.315Z,51.83
2018-02-22T11:55:51.103Z,51.69
2018-02-22T11:56:57.792Z,51.61
2018-02-22T11:58:04.561Z,51.41
2018-02-22T11:59:11.268Z,51.18
2018-02-22T12:00:18.111Z,50.93
2018-02-22T12:01:24.839Z,50.78
2018-02-22T12:02:31.536Z,50.79
2018-02-22T12:03:38.256Z,50.54
2018-02-22T12:04:44.963Z,50.50
2018-02-22T12:05:52.080Z,50.51
2018-02-22T12:06:58.839Z,50.38
2018-02-22T12:08:05.563Z,50.38
2018-02-22T12:09:12.387Z,50.28
2018-02-22T12:10:19.115Z,50.13
2018-02-22T12:11:25.899Z,50.12
2018-02-22T12:12:32.603Z,50.00
2018-02-22T12:13:39.448Z,49.90
2018-02-22T12:14:46.171Z,49.69
2018-02-22T12:15:52.932Z,49.63
2018-02-22T12:16:59.683Z,49.47
2018-02-22T12:18:06.396Z,49.58
2018-02-22T12:19:13.175Z,49.40
2018-02-22T12:20:19.874Z,49.15
2018-02-22T12:21:26.618Z,49.03
2018-02-22T12:22:33.362Z,48.86
2018-02-22T12:23:40.457Z,48.87
2018-02-22T12:24:47.227Z,48.75
2018-02-22T12:25:54.047Z,48.56
2018-02-22T12:27:00.764Z,48.48
2018-02-22T12:28:07.525Z,48.33
2018-02-22T12:29:14.258Z,48.18
2018-02-22T12:30:21.161Z,47.95
2018-02-22T12:31:27.914Z,47.86
2018-02-22T12:32:34.643Z,47.86
2018-02-22T12:33:41.448Z,47.71
2018-02-22T12:34:48.208Z,47.52
2018-02-22T12:35:54.920Z,47.44
2018-02-22T12:37:01.682Z,47.30
2018-02-22T12:38:08.531Z,47.11
2018-02-22T12:39:15.255Z,46.98
2018-02-22T12:40:21.999Z,46.83
2018-02-22T12:41:28.784Z,46.67
2018-02-22T12:42:35.524Z,46.64
2018-02-22T12:43:42.339Z,46.46
2018-02-22T12:44:49.020Z,46.28
2018-02-22T12:45:55.776Z,46.21
2018-02-22T12:47:02.568Z,46.22
2018-02-22T12:48:09.428Z,46.13
2018-02-22T12:49:16.201Z,45.88
2018-02-22T12:50:22.987Z,45.63
2018-02-22T12:51:29.707Z,45.43
2018-02-22T12:52:36.492Z,45.34
2018-02-22T12:53:43.248Z,45.30
2018-02-22T12:54:50.108Z,45.19
2018-02-22T12:55:56.930Z,45.12
2018-02-22T12:57:03.639Z,44.98
2018-02-22T12:58:10.409Z,45.05
2018-02-22T12:59:17.138Z,44.94
2018-02-22T13:00:23.832Z,44.92
2018-02-22T13:01:30.681Z,44.86
2018-02-22T13:02:37.400Z,44.58
2018-02-22T13:03:44.177Z,44.42
2018-02-22T13:04:50.908Z,44.27
2018-02-22T13:05:57.608Z,44.29
2018-02-22T13:07:04.594Z,44.05
2018-02-22T13:08:11.304Z,43.88
2018-02-22T13:09:18.024Z,43.55
2018-02-22T13:10:24.708Z,43.45
2018-02-22T13:11:31.496Z,43.41
2018-02-22T13:12:38.458Z,43.31
2018-02-22T13:13:45.295Z,43.25
2018-02-22T13:14:52.124Z,43.27
2018-02-22T13:15:58.923Z,43.17
2018-02-22T13:17:05.729Z,43.02
2018-02-22T13:18:12.484Z,42.89
2018-02-22T13:19:19.276Z,42.69
2018-02-22T13:20:26.004Z,42.71
2018-02-22T13:21:32.791Z,42.51
2018-02-22T13:22:39.475Z,42.52
2018-02-22T13:23:46.230Z,42.40
2018-02-22T13:24:52.979Z,42.26
2018-02-22T13:25:59.672Z,42.14
2018-02-22T13:27:06.390Z,42.10
2018-02-22T13:28:13.148Z,41.95
2018-02-22T13:29:19.840Z,41.87
2018-02-22T13:30:26.888Z,41.79
2018-02-22T13:31:33.624Z,41.82
2018-02-22T13:32:40.355Z,41.63
2018-02-22T13:33:47.175Z,41.50
2018-02-22T13:34:53.970Z,41.48
2018-02-22T13:36:00.698Z,41.48
2018-02-22T13:37:07.576Z,41.45
2018-02-22T13:38:14.444Z,41.27
2018-02-22T13:39:25.220Z,41.17
2018-02-22T13:40:31.956Z,41.13
2018-02-22T13:41:38.945Z,41.12
2018-02-22T13:42:45.643Z,40.98
2018-02-22T13:43:52.363Z,41.04
2018-02-22T13:44:59.210Z,41.02
2018-02-22T13:46:06.088Z,40.98
2018-02-22T13:47:12.823Z,40.91
2018-02-22T13:48:19.558Z,40.96
2018-02-22T13:49:26.259Z,40.95
2018-02-22T13:50:33.172Z,40.76
2018-02-22T13:51:40.073Z,40.77
2018-02-22T13:52:46.893Z,40.84
2018-02-22T13:53:53.688Z,40.81
2018-02-22T13:55:00.392Z,40.77
2018-02-22T13:56:07.132Z,40.80
2018-02-22T13:57:13.968Z,40.75
2018-02-22T13:58:20.664Z,40.69
2018-02-22T13:59:27.409Z,40.75
2018-02-22T14:00:34.090Z,40.75
2018-02-22T14:01:41.160Z,40.77
2018-02-22T14:02:48.204Z,40.86
2018-02-22T14:03:54.944Z,40.96
2018-02-22T14:05:01.672Z,41.01
2018-02-22T14:06:08.409Z,40.96
2018-02-22T14:07:15.179Z,40.92
2018-02-22T14:08:21.920Z,40.88
2018-02-22T14:09:28.760Z,40.94
2018-02-22T14:10:35.832Z,40.91
2018-02-22T14:11:42.548Z,40.84
2018-02-22T14:12:49.295Z,40.79
2018-02-22T14:13:56.028Z,40.75
2018-02-22T14:15:02.797Z,40.69
2018-02-22T14:16:09.641Z,40.67
2018-02-22T14:17:16.448Z,40.73
2018-02-22T14:18:23.228Z,40.59
2018-02-22T14:19:29.947Z,40.54